Terminal Aerodrome Forecast
Issued by NWS

Current Version | Previous Version | Text Only | Print | Product List | Glossary On
Versions: 1 2 3 4 5 6 7 8 9 10 11 12 13 14 15 16 17 18 19 20 21 22 23 24 25 26 27 28 29 30 31 32
000
FTUS43 KLSX 061123
TAFUIN
TAF
KUIN 061123Z 0612/0712 32004KT 3SM BR OVC005
     FM061600 31012KT 5SM BR SCT008
     FM061700 30013KT 6SM BR SCT015
     FM061900 30014KT P6SM FEW200
     FM062300 27008KT P6SM FEW250=

USA.gov is the U.S. government's official web portal to all federal, state and local government web resources and services.